createdAt,value
2023-07-12T00:00:05.014Z,4.50
2023-07-12T00:01:05.132Z,4.40
2023-07-12T00:02:05.364Z,4.70
2023-07-12T00:03:05.616Z,4.50
2023-07-12T00:04:05.746Z,4.30
2023-07-12T00:05:05.870Z,4.70
2023-07-12T00:06:06.018Z,4.40
2023-07-12T00:07:06.211Z,4.80
2023-07-12T00:08:06.415Z,4.50
2023-07-12T00:09:06.605Z,4.70
2023-07-12T00:10:06.770Z,4.50
2023-07-12T00:11:07.170Z,4.80
2023-07-12T00:12:07.206Z,4.60
2023-07-12T00:13:07.370Z,4.70
2023-07-12T00:14:07.537Z,4.50
2023-07-12T00:15:07.737Z,4.50
2023-07-12T00:16:07.944Z,4.70
2023-07-12T00:17:08.141Z,4.40
2023-07-12T00:18:08.426Z,5.00
2023-07-12T00:19:08.640Z,4.60
2023-07-12T00:20:08.702Z,4.70
2023-07-12T00:21:09.155Z,4.80
2023-07-12T00:22:09.067Z,4.50
2023-07-12T00:23:09.271Z,4.70
2023-07-12T00:24:09.428Z,4.60
2023-07-12T00:25:09.622Z,4.60
2023-07-12T00:26:09.811Z,4.90
2023-07-12T00:28:10.215Z,5.00
2023-07-12T00:29:10.422Z,4.60
2023-07-12T00:30:10.560Z,4.70
2023-07-12T00:31:11.122Z,4.90
2023-07-12T00:32:10.949Z,4.60
2023-07-12T00:33:11.132Z,4.90
2023-07-12T00:34:11.321Z,4.70
2023-07-12T00:35:11.486Z,4.60
2023-07-12T00:36:11.740Z,4.70
2023-07-12T00:37:11.866Z,4.80
2023-07-12T00:38:12.031Z,4.80
2023-07-12T00:39:12.206Z,5.00
2023-07-12T00:40:12.510Z,4.80
2023-07-12T00:41:12.575Z,5.00
2023-07-12T00:42:12.735Z,4.90
2023-07-12T00:43:12.952Z,4.90
2023-07-12T00:44:13.125Z,5.10
2023-07-12T00:45:13.343Z,4.90
2023-07-12T00:46:13.500Z,5.00
2023-07-12T00:47:13.673Z,5.10
2023-07-12T00:48:13.862Z,5.00
2023-07-12T00:49:14.015Z,4.60
2023-07-12T00:50:14.268Z,5.00
2023-07-12T00:51:14.414Z,4.50
2023-07-12T00:52:14.609Z,4.80
2023-07-12T00:53:14.816Z,4.50
2023-07-12T00:54:15.024Z,4.40
2023-07-12T00:55:15.165Z,4.80
2023-07-12T00:56:15.349Z,5.10
2023-07-12T00:57:15.538Z,4.80
2023-07-12T00:58:15.748Z,5.00
2023-07-12T00:59:15.922Z,4.90
2023-07-12T01:00:16.097Z,4.80
2023-07-12T01:01:16.332Z,4.90
2023-07-12T01:02:16.491Z,4.90
2023-07-12T01:03:16.771Z,4.90
2023-07-12T01:04:16.833Z,4.90
2023-07-12T01:05:17.104Z,5.00
2023-07-12T01:06:17.238Z,4.70
2023-07-12T01:07:17.392Z,4.80
2023-07-12T01:08:17.615Z,5.00
2023-07-12T01:09:17.804Z,4.80
2023-07-12T01:10:17.988Z,4.80
2023-07-12T01:11:18.194Z,4.60
2023-07-12T01:12:18.353Z,4.80
2023-07-12T01:13:18.609Z,4.80
2023-07-12T01:14:18.753Z,5.10
2023-07-12T01:15:18.940Z,5.00
2023-07-12T01:16:19.226Z,5.00
2023-07-12T01:17:19.319Z,5.20
2023-07-12T01:18:19.613Z,5.00
2023-07-12T01:19:19.686Z,4.70
2023-07-12T01:20:19.872Z,4.70
2023-07-12T01:21:20.038Z,5.20
2023-07-12T01:22:20.254Z,4.80
2023-07-12T01:23:20.422Z,4.80
2023-07-12T01:24:20.600Z,5.00
2023-07-12T01:25:20.834Z,4.70
2023-07-12T01:26:20.977Z,4.70
2023-07-12T01:27:21.200Z,4.70
2023-07-12T01:28:21.323Z,4.90
2023-07-12T01:29:21.472Z,4.50
2023-07-12T01:30:21.625Z,5.00
2023-07-12T01:31:21.863Z,4.70
2023-07-12T01:32:22.053Z,4.70
2023-07-12T01:33:22.174Z,4.70
2023-07-12T01:34:22.395Z,5.20
2023-07-12T01:35:22.538Z,5.00
2023-07-12T01:36:22.741Z,5.20
2023-07-12T01:37:22.943Z,5.20
2023-07-12T01:38:23.109Z,5.10
2023-07-12T01:39:23.313Z,4.80
2023-07-12T01:40:23.511Z,5.30
2023-07-12T01:41:23.695Z,4.80
2023-07-12T01:42:23.896Z,5.20
2023-07-12T01:43:24.052Z,5.20
2023-07-12T01:44:24.267Z,5.10
2023-07-12T01:45:24.471Z,4.60
2023-07-12T01:46:24.650Z,4.90
2023-07-12T01:47:24.871Z,4.80
2023-07-12T01:48:25.015Z,5.10
2023-07-12T01:49:25.202Z,4.60
2023-07-12T01:50:25.387Z,4.60
2023-07-12T01:51:25.543Z,4.50
2023-07-12T01:52:25.747Z,5.20
2023-07-12T01:53:25.920Z,5.50
2023-07-12T01:54:26.101Z,5.20
2023-07-12T01:55:26.266Z,5.20
2023-07-12T01:56:26.463Z,5.20
2023-07-12T01:57:26.654Z,5.10
2023-07-12T01:58:26.860Z,5.30
2023-07-12T01:59:27.031Z,5.10
2023-07-12T02:00:27.237Z,5.40
2023-07-12T02:01:27.470Z,5.20
2023-07-12T02:02:27.698Z,5.20
2023-07-12T02:03:27.922Z,4.90
2023-07-12T02:04:27.983Z,4.90
2023-07-12T02:05:28.144Z,4.90
2023-07-12T02:06:28.365Z,5.40
2023-07-12T02:07:28.564Z,5.30
2023-07-12T02:08:28.706Z,5.20
2023-07-12T02:09:28.869Z,5.20
2023-07-12T02:10:29.068Z,4.90
2023-07-12T02:11:29.247Z,4.90
2023-07-12T02:12:29.441Z,5.20
2023-07-12T02:13:29.578Z,5.00
2023-07-12T02:14:29.800Z,5.40
2023-07-12T02:15:29.966Z,5.30
2023-07-12T02:16:30.230Z,5.60
2023-07-12T02:17:30.358Z,5.60
2023-07-12T02:18:30.540Z,5.00
2023-07-12T02:19:30.683Z,5.20
2023-07-12T02:20:30.894Z,5.00
2023-07-12T02:21:31.023Z,5.40
2023-07-12T02:22:31.219Z,5.10
2023-07-12T02:23:31.390Z,5.20
2023-07-12T02:24:31.554Z,5.20
2023-07-12T02:25:31.763Z,5.20
2023-07-12T02:26:31.937Z,5.30
2023-07-12T02:27:32.131Z,5.60
2023-07-12T02:28:32.290Z,5.20
2023-07-12T02:29:32.489Z,5.30
2023-07-12T02:30:32.699Z,5.50
2023-07-12T02:31:33.023Z,5.40
2023-07-12T02:32:33.074Z,5.60
2023-07-12T02:33:33.233Z,5.60
2023-07-12T02:34:33.419Z,5.50
2023-07-12T02:35:33.574Z,5.50
2023-07-12T02:36:33.743Z,5.30
2023-07-12T02:37:33.953Z,5.50
2023-07-12T02:38:34.128Z,5.90
2023-07-12T02:39:34.335Z,5.50
2023-07-12T02:40:34.506Z,5.50
2023-07-12T02:41:34.692Z,5.50
2023-07-12T02:42:34.881Z,5.10
2023-07-12T02:43:35.056Z,5.30
2023-07-12T02:44:35.270Z,5.60
2023-07-12T02:45:35.449Z,5.30
2023-07-12T02:46:35.635Z,5.80
2023-07-12T02:47:35.835Z,5.90
2023-07-12T02:48:35.973Z,6.20
2023-07-12T02:49:36.164Z,5.90
2023-07-12T02:50:36.379Z,6.50
2023-07-12T02:51:36.594Z,6.10
2023-07-12T02:52:36.748Z,6.20
2023-07-12T02:53:38.988Z,5.80
2023-07-12T02:54:37.144Z,6.20
2023-07-12T02:55:37.299Z,5.90
2023-07-12T02:56:37.495Z,6.20
2023-07-12T02:57:37.679Z,6.00
2023-07-12T02:58:38.001Z,6.20
2023-07-12T02:59:38.097Z,5.90
2023-07-12T03:00:38.284Z,6.00
2023-07-12T03:01:38.506Z,6.10
2023-07-12T03:02:38.670Z,6.20
2023-07-12T03:03:38.827Z,6.30
2023-07-12T03:04:39.027Z,6.40
2023-07-12T03:05:39.220Z,6.20
2023-07-12T03:06:39.354Z,6.10
2023-07-12T03:07:39.591Z,5.70
2023-07-12T03:08:39.806Z,5.90
2023-07-12T03:09:39.934Z,5.80
2023-07-12T03:10:40.092Z,5.80
2023-07-12T03:11:40.275Z,6.50
2023-07-12T03:12:40.496Z,6.20
2023-07-12T03:13:40.655Z,6.30
2023-07-12T03:14:40.828Z,6.10
2023-07-12T03:15:41.025Z,6.10
2023-07-12T03:16:41.261Z,6.00
2023-07-12T03:17:41.414Z,6.00
2023-07-12T03:18:41.684Z,6.40
2023-07-12T03:19:41.740Z,6.20
2023-07-12T03:20:41.896Z,6.50
2023-07-12T03:21:42.102Z,7.20
2023-07-12T03:22:42.242Z,6.30
2023-07-12T03:23:42.445Z,6.90
2023-07-12T03:24:42.602Z,6.70
2023-07-12T03:25:42.780Z,6.10
2023-07-12T03:26:42.977Z,6.60
2023-07-12T03:27:43.108Z,6.20
2023-07-12T03:28:43.299Z,6.60
2023-07-12T03:29:43.496Z,6.90
2023-07-12T03:30:43.687Z,6.70
2023-07-12T03:31:43.894Z,6.70
2023-07-12T03:32:44.059Z,6.30
2023-07-12T03:33:44.223Z,6.70
2023-07-12T03:34:44.401Z,7.00
2023-07-12T03:35:44.597Z,6.50
2023-07-12T03:36:44.793Z,6.60
2023-07-12T03:37:44.940Z,6.50
2023-07-12T03:38:45.114Z,6.60
2023-07-12T03:39:45.353Z,6.60
2023-07-12T03:40:45.507Z,6.30
2023-07-12T03:41:45.719Z,6.30
2023-07-12T03:42:45.874Z,6.70
2023-07-12T03:43:46.025Z,6.30
2023-07-12T03:44:46.203Z,6.50
2023-07-12T03:45:46.391Z,6.40
2023-07-12T03:46:46.694Z,6.50
2023-07-12T03:47:46.867Z,6.50
2023-07-12T03:48:46.994Z,6.70
2023-07-12T03:49:47.166Z,6.60
2023-07-12T03:50:47.326Z,6.20
2023-07-12T03:51:47.473Z,6.50
2023-07-12T03:52:47.676Z,6.70
2023-07-12T03:53:47.881Z,6.10
2023-07-12T03:54:48.052Z,6.80
2023-07-12T03:55:48.198Z,6.90
2023-07-12T03:56:48.397Z,8.30
2023-07-12T03:57:48.568Z,7.60
2023-07-12T03:58:48.765Z,7.30
2023-07-12T03:59:48.949Z,7.30
2023-07-12T04:00:49.172Z,7.50
2023-07-12T04:01:49.306Z,7.30
2023-07-12T04:02:49.602Z,7.50
2023-07-12T04:03:49.716Z,7.70
2023-07-12T04:04:49.865Z,7.40
2023-07-12T04:05:50.070Z,7.40
2023-07-12T04:06:50.200Z,7.30
2023-07-12T04:07:50.401Z,7.00
2023-07-12T04:08:50.636Z,7.20
2023-07-12T04:09:50.813Z,7.30
2023-07-12T04:10:50.980Z,7.50
2023-07-12T04:11:51.184Z,7.10
2023-07-12T04:12:51.357Z,7.00
2023-07-12T04:13:51.541Z,7.30
2023-07-12T04:14:51.744Z,7.70
2023-07-12T04:15:51.902Z,7.20
2023-07-12T04:16:52.106Z,6.90
2023-07-12T04:17:52.298Z,7.20
2023-07-12T04:18:52.434Z,7.10
2023-07-12T04:19:52.589Z,7.00
2023-07-12T04:20:52.798Z,7.10
2023-07-12T04:21:52.987Z,6.60
2023-07-12T04:22:53.171Z,6.80
2023-07-12T04:23:53.338Z,7.30
2023-07-12T04:24:53.547Z,7.60
2023-07-12T04:25:53.752Z,7.50
2023-07-12T04:26:53.917Z,7.10
2023-07-12T04:27:54.092Z,7.20
2023-07-12T04:28:54.282Z,7.70
2023-07-12T04:29:54.449Z,7.80
2023-07-12T04:30:54.669Z,7.50
2023-07-12T04:31:54.822Z,8.40
2023-07-12T04:32:55.037Z,8.10
2023-07-12T04:33:55.182Z,7.80
2023-07-12T04:34:55.396Z,7.80
2023-07-12T04:35:55.570Z,7.90
2023-07-12T04:36:55.714Z,7.80
2023-07-12T04:37:55.901Z,8.10
2023-07-12T04:38:56.097Z,7.90
2023-07-12T04:39:56.270Z,7.90
2023-07-12T04:40:56.485Z,8.40
2023-07-12T04:41:56.627Z,8.00
2023-07-12T04:42:56.801Z,8.20
2023-07-12T04:43:56.986Z,8.50
2023-07-12T04:44:57.188Z,8.30
2023-07-12T04:45:57.417Z,8.70
2023-07-12T04:46:57.652Z,8.30
2023-07-12T04:47:57.758Z,8.60
2023-07-12T04:48:57.958Z,8.60
2023-07-12T04:49:58.142Z,8.70
2023-07-12T04:50:58.339Z,8.50
2023-07-12T04:51:58.551Z,8.40
2023-07-12T04:52:58.717Z,8.70
2023-07-12T04:53:58.902Z,8.60
2023-07-12T04:54:59.123Z,9.10
2023-07-12T04:55:59.277Z,8.50
2023-07-12T04:56:59.496Z,8.40
2023-07-12T04:57:59.641Z,8.60
2023-07-12T04:58:59.854Z,8.50
2023-07-12T05:00:00.054Z,8.70
2023-07-12T05:01:00.316Z,8.20
2023-07-12T05:02:00.430Z,9.00
2023-07-12T05:03:00.701Z,8.80
2023-07-12T05:04:00.832Z,8.70
2023-07-12T05:05:00.984Z,8.90
2023-07-12T05:06:13.479Z,8.60
2023-07-12T05:07:02.382Z,9.40
2023-07-12T05:08:01.545Z,8.70
2023-07-12T05:09:01.736Z,9.10
2023-07-12T05:10:01.951Z,9.00
2023-07-12T05:11:02.137Z,9.40
2023-07-12T05:12:02.316Z,9.50
2023-07-12T05:13:02.492Z,9.10
2023-07-12T05:14:02.650Z,9.70
2023-07-12T05:15:04.015Z,9.70
2023-07-12T05:16:03.023Z,9.70
2023-07-12T05:17:03.262Z,9.40
2023-07-12T05:18:03.439Z,9.10
2023-07-12T05:19:03.624Z,9.30
2023-07-12T05:20:03.823Z,9.60
2023-07-12T05:21:03.945Z,9.70
2023-07-12T05:22:04.134Z,9.20
2023-07-12T05:23:04.313Z,9.90
2023-07-12T05:24:04.460Z,9.20
2023-07-12T05:25:04.672Z,9.10
2023-07-12T05:26:04.843Z,9.20
2023-07-12T05:27:05.062Z,9.60
2023-07-12T05:28:05.244Z,8.70
2023-07-12T05:29:05.558Z,9.10
2023-07-12T05:30:05.622Z,8.90
2023-07-12T05:31:05.862Z,9.20
2023-07-12T05:32:06.009Z,8.60
2023-07-12T05:33:06.232Z,8.30
2023-07-12T05:34:06.401Z,8.50
2023-07-12T05:35:06.541Z,8.70
2023-07-12T05:36:06.800Z,8.20
2023-07-12T05:37:06.957Z,8.50
2023-07-12T05:38:07.082Z,7.90
2023-07-12T05:39:07.308Z,7.90
2023-07-12T05:40:07.508Z,8.40
2023-07-12T05:41:07.668Z,8.20
2023-07-12T05:42:07.831Z,7.80
2023-07-12T05:43:08.003Z,7.80
2023-07-12T05:44:08.204Z,7.80
2023-07-12T05:45:08.407Z,7.90
2023-07-12T05:46:08.619Z,7.30
2023-07-12T05:47:08.803Z,7.40
2023-07-12T05:48:08.936Z,7.40
2023-07-12T05:49:09.143Z,7.30
2023-07-12T05:50:09.344Z,7.30
2023-07-12T05:51:10.050Z,7.30
2023-07-12T05:52:09.701Z,7.20
2023-07-12T05:53:09.926Z,6.80
2023-07-12T05:54:10.083Z,7.30
2023-07-12T05:55:10.316Z,6.90
2023-07-12T05:56:10.479Z,6.60
2023-07-12T05:57:10.640Z,6.90
2023-07-12T05:58:10.841Z,6.20
2023-07-12T05:59:11.050Z,6.60
2023-07-12T06:00:11.224Z,6.60
2023-07-12T06:01:11.974Z,6.50
2023-07-12T06:02:11.712Z,6.70
2023-07-12T06:03:11.869Z,6.30
2023-07-12T06:04:12.033Z,6.30
2023-07-12T06:05:12.154Z,6.50
2023-07-12T06:06:12.351Z,6.10
2023-07-12T06:07:12.546Z,6.20
2023-07-12T06:08:12.712Z,6.30
2023-07-12T06:09:12.949Z,6.20
2023-07-12T06:10:13.089Z,5.70
2023-07-12T06:11:13.455Z,5.80
2023-07-12T06:12:13.455Z,6.10
2023-07-12T06:13:13.607Z,5.80
2023-07-12T06:14:13.819Z,5.80
2023-07-12T06:15:14.069Z,6.10
2023-07-12T06:16:14.245Z,6.20
2023-07-12T06:17:14.473Z,5.80
2023-07-12T06:18:14.725Z,5.80
2023-07-12T06:19:14.714Z,6.20
2023-07-12T06:20:14.910Z,6.30
2023-07-12T06:21:15.102Z,5.80
2023-07-12T06:22:15.265Z,6.20
2023-07-12T06:23:15.497Z,6.20
2023-07-12T06:24:15.626Z,5.80
2023-07-12T06:25:15.804Z,6.10
2023-07-12T06:26:16.067Z,5.70
2023-07-12T06:27:16.168Z,5.80
2023-07-12T06:28:16.399Z,6.20
2023-07-12T06:29:16.566Z,5.90
2023-07-12T06:30:16.773Z,6.50
2023-07-12T06:31:16.967Z,6.10
2023-07-12T06:32:17.077Z,6.20
2023-07-12T06:33:17.281Z,6.20
2023-07-12T06:34:17.437Z,6.10
2023-07-12T06:35:17.644Z,6.40
2023-07-12T06:36:17.824Z,6.20
2023-07-12T06:37:17.994Z,5.80
2023-07-12T06:38:18.211Z,6.50
2023-07-12T06:39:18.375Z,5.70
2023-07-12T06:40:18.546Z,5.70
2023-07-12T06:41:18.725Z,6.00
2023-07-12T06:42:18.943Z,6.10
2023-07-12T06:43:19.128Z,6.20
2023-07-12T06:44:19.244Z,6.10
2023-07-12T06:45:19.434Z,5.90
2023-07-12T06:46:19.692Z,8.80
2023-07-12T06:47:19.808Z,6.30
2023-07-12T06:48:20.029Z,6.20
2023-07-12T06:49:20.197Z,6.20
2023-07-12T06:50:20.342Z,6.30
2023-07-12T06:51:20.529Z,6.50
2023-07-12T06:52:20.714Z,6.90
2023-07-12T06:53:20.917Z,6.40
2023-07-12T06:54:21.099Z,6.40
2023-07-12T06:55:21.278Z,6.90
2023-07-12T06:56:21.474Z,6.60
2023-07-12T06:57:21.666Z,6.80
2023-07-12T06:58:21.887Z,6.50
2023-07-12T06:59:22.039Z,6.60
2023-07-12T07:00:22.244Z,6.80
2023-07-12T07:01:22.458Z,6.80
2023-07-12T07:02:22.620Z,6.60
2023-07-12T07:03:22.800Z,6.60
2023-07-12T07:04:23.040Z,6.90
2023-07-12T07:05:23.140Z,6.30
2023-07-12T07:06:23.359Z,6.50
2023-07-12T07:07:23.486Z,6.50
2023-07-12T07:08:23.795Z,6.60
2023-07-12T07:09:23.848Z,6.90
2023-07-12T07:10:24.034Z,5.90
2023-07-12T07:11:24.285Z,6.10
2023-07-12T07:12:24.440Z,6.10
2023-07-12T07:13:24.620Z,6.50
2023-07-12T07:14:24.766Z,6.40
2023-07-12T07:15:24.961Z,6.20
2023-07-12T07:16:25.203Z,6.40
2023-07-12T07:17:25.347Z,6.00
2023-07-12T07:18:25.705Z,6.40
2023-07-12T07:19:25.706Z,6.10
2023-07-12T07:20:25.925Z,6.10
2023-07-12T07:21:26.064Z,6.10
2023-07-12T07:22:26.262Z,6.00
2023-07-12T07:23:26.444Z,6.50
2023-07-12T07:24:26.616Z,6.10
2023-07-12T07:25:26.827Z,6.50
2023-07-12T07:26:26.976Z,6.60
2023-07-12T07:27:27.173Z,6.50
2023-07-12T07:28:27.354Z,6.60
2023-07-12T07:29:27.560Z,6.40
2023-07-12T07:30:27.737Z,6.00
2023-07-12T07:31:27.942Z,6.40
2023-07-12T07:32:28.165Z,6.50
2023-07-12T07:33:28.318Z,6.70
2023-07-12T07:34:28.457Z,7.00
2023-07-12T07:35:28.646Z,6.70
2023-07-12T07:36:28.856Z,7.60
2023-07-12T07:37:29.031Z,6.70
2023-07-12T07:38:29.232Z,6.30
2023-07-12T07:39:29.393Z,7.10
2023-07-12T07:40:29.559Z,6.50
2023-07-12T07:41:29.745Z,7.00
2023-07-12T07:42:29.944Z,6.40
2023-07-12T07:43:30.122Z,6.80
2023-07-12T07:44:30.280Z,6.50
2023-07-12T07:45:30.444Z,5.80
2023-07-12T07:46:30.685Z,6.70
2023-07-12T07:47:30.862Z,6.50
2023-07-12T07:48:31.036Z,6.30
2023-07-12T07:49:31.202Z,6.40
2023-07-12T07:50:31.417Z,6.50
2023-07-12T07:51:31.576Z,6.20
2023-07-12T07:52:31.825Z,6.80
2023-07-12T07:53:32.036Z,6.30
2023-07-12T07:54:32.145Z,6.20
2023-07-12T07:55:32.329Z,6.60
2023-07-12T07:56:32.543Z,6.40
2023-07-12T07:57:32.672Z,6.90
2023-07-12T07:58:32.884Z,6.70
2023-07-12T07:59:33.057Z,6.30
2023-07-12T08:00:33.266Z,6.20
2023-07-12T08:01:33.454Z,6.70
2023-07-12T08:02:33.747Z,6.50
2023-07-12T08:03:34.032Z,6.20
2023-07-12T08:04:34.084Z,6.30
2023-07-12T08:05:34.149Z,5.80
2023-07-12T08:06:34.358Z,5.50
2023-07-12T08:07:34.494Z,5.80
2023-07-12T08:08:34.716Z,5.80
2023-07-12T08:09:34.934Z,5.50
2023-07-12T08:10:35.108Z,5.50
2023-07-12T08:11:36.785Z,5.80
2023-07-12T08:12:35.425Z,5.40
2023-07-12T08:13:35.614Z,5.00
2023-07-12T08:14:35.811Z,5.70
2023-07-12T08:15:36.010Z,5.20
2023-07-12T08:16:36.200Z,5.00
2023-07-12T08:17:36.372Z,5.10
2023-07-12T08:18:36.636Z,5.20
2023-07-12T08:19:36.725Z,5.20
2023-07-12T08:20:36.965Z,5.00
2023-07-12T08:21:37.106Z,5.10
2023-07-12T08:22:37.303Z,4.90
2023-07-12T08:23:37.490Z,4.90
2023-07-12T08:24:37.669Z,4.90
2023-07-12T08:25:37.862Z,5.30
2023-07-12T08:26:38.043Z,5.00
2023-07-12T08:27:38.251Z,5.30
2023-07-12T08:28:38.391Z,4.80
2023-07-12T08:29:38.564Z,5.10
2023-07-12T08:30:38.764Z,4.90
2023-07-12T08:31:38.950Z,5.00
2023-07-12T08:32:39.183Z,4.60
2023-07-12T08:33:39.337Z,4.70
2023-07-12T08:34:39.478Z,5.10
2023-07-12T08:35:48.097Z,4.50
2023-07-12T08:36:40.816Z,4.50
2023-07-12T08:37:39.991Z,4.50
2023-07-12T08:38:40.164Z,4.20
2023-07-12T08:39:40.380Z,4.30
2023-07-12T08:40:40.579Z,4.40
2023-07-12T08:41:40.739Z,4.30
2023-07-12T08:42:40.895Z,4.40
2023-07-12T08:43:41.074Z,4.60
2023-07-12T08:44:41.244Z,3.90
2023-07-12T08:45:41.502Z,4.10
2023-07-12T08:46:41.602Z,4.00
2023-07-12T08:47:41.799Z,4.20
2023-07-12T08:48:41.968Z,3.90
2023-07-12T08:49:42.131Z,4.00
2023-07-12T08:50:42.329Z,3.80
2023-07-12T08:51:44.763Z,4.10
2023-07-12T08:52:42.728Z,4.30
2023-07-12T08:53:42.908Z,3.90
2023-07-12T08:54:43.098Z,4.40
2023-07-12T08:55:43.291Z,4.20
2023-07-12T08:56:43.457Z,4.00
2023-07-12T08:57:43.608Z,4.00
2023-07-12T08:58:43.777Z,3.80
2023-07-12T08:59:43.980Z,3.50
2023-07-12T09:00:44.195Z,3.70
2023-07-12T09:01:44.447Z,3.80
2023-07-12T09:02:44.527Z,3.60
2023-07-12T09:03:44.708Z,3.80
2023-07-12T09:04:44.910Z,4.60
2023-07-12T09:05:45.117Z,3.70
2023-07-12T09:06:45.229Z,3.80
2023-07-12T09:07:45.413Z,3.80
2023-07-12T09:08:45.583Z,3.90
2023-07-12T09:09:45.779Z,3.70
2023-07-12T09:10:45.984Z,3.60
2023-07-12T09:11:46.203Z,3.30
2023-07-12T09:12:46.311Z,3.10
2023-07-12T09:13:46.494Z,3.20
2023-07-12T09:14:48.754Z,3.30
2023-07-12T09:15:46.840Z,3.10
2023-07-12T09:16:47.062Z,3.00
2023-07-12T09:17:47.256Z,2.90
2023-07-12T09:18:47.443Z,3.10
2023-07-12T09:19:47.600Z,3.00
2023-07-12T09:20:47.759Z,3.20
2023-07-12T09:21:48.438Z,2.80
2023-07-12T09:22:48.119Z,2.90
2023-07-12T09:23:48.319Z,2.80
2023-07-12T09:24:48.502Z,2.50
2023-07-12T09:25:48.714Z,2.80
2023-07-12T09:26:48.881Z,2.70
2023-07-12T09:27:49.056Z,2.60
2023-07-12T09:28:49.233Z,2.50
2023-07-12T09:29:49.405Z,2.70
2023-07-12T09:30:49.586Z,2.40
2023-07-12T09:31:49.816Z,2.90
2023-07-12T09:32:50.031Z,3.00
2023-07-12T09:33:50.125Z,2.60
2023-07-12T09:34:50.303Z,2.50
2023-07-12T09:35:50.502Z,2.30
2023-07-12T09:36:50.698Z,2.80
2023-07-12T09:37:50.884Z,2.30
2023-07-12T09:38:51.033Z,2.50
2023-07-12T09:39:51.226Z,2.30
2023-07-12T09:40:51.415Z,2.30
2023-07-12T09:41:52.030Z,2.50
2023-07-12T09:42:51.815Z,2.60
2023-07-12T09:43:51.987Z,2.60
2023-07-12T09:44:52.128Z,2.50
2023-07-12T09:46:09.352Z,2.70
2023-07-12T09:46:53.580Z,2.40
2023-07-12T09:47:52.738Z,2.40
2023-07-12T09:48:52.884Z,2.30
2023-07-12T09:49:53.067Z,2.60
2023-07-12T09:50:53.220Z,2.50
2023-07-12T09:51:53.439Z,2.50
2023-07-12T09:52:53.613Z,2.40
2023-07-12T09:53:53.775Z,2.50
2023-07-12T09:54:53.967Z,2.80
2023-07-12T09:55:54.169Z,2.80
2023-07-12T09:56:54.321Z,2.40
2023-07-12T09:57:54.552Z,2.30
2023-07-12T09:58:54.694Z,2.50
2023-07-12T09:59:54.884Z,2.50
2023-07-12T10:00:55.081Z,2.60
2023-07-12T10:01:55.355Z,2.50
2023-07-12T10:02:55.505Z,2.50
2023-07-12T10:03:58.123Z,2.30
2023-07-12T10:04:55.844Z,2.70
2023-07-12T10:05:56.019Z,2.50
2023-07-12T10:06:56.192Z,2.50
2023-07-12T10:07:56.344Z,2.40
2023-07-12T10:08:56.554Z,2.60
2023-07-12T10:09:56.711Z,2.20
2023-07-12T10:10:56.880Z,2.50
2023-07-12T10:11:57.066Z,2.40
2023-07-12T10:12:57.273Z,2.20
2023-07-12T10:13:57.454Z,2.30
2023-07-12T10:14:57.690Z,2.10
2023-07-12T10:15:57.785Z,2.10
2023-07-12T10:16:58.010Z,2.10
2023-07-12T10:17:58.303Z,2.50
2023-07-12T10:18:58.557Z,2.20
2023-07-12T10:19:58.559Z,2.00
2023-07-12T10:20:58.734Z,1.90
2023-07-12T10:21:58.907Z,2.10
2023-07-12T10:22:59.100Z,2.20
2023-07-12T10:23:59.246Z,2.50
2023-07-12T10:24:59.437Z,2.10
2023-07-12T10:25:59.626Z,2.40
2023-07-12T10:26:59.798Z,2.50
2023-07-12T10:28:00.009Z,2.30
2023-07-12T10:29:00.179Z,2.10
2023-07-12T10:30:00.344Z,2.40
2023-07-12T10:31:00.578Z,2.00
2023-07-12T10:32:00.762Z,1.90
2023-07-12T10:33:00.990Z,2.30
2023-07-12T10:34:01.136Z,2.20
2023-07-12T10:35:01.308Z,1.90
2023-07-12T10:36:01.488Z,2.00
2023-07-12T10:37:01.686Z,2.10
2023-07-12T10:38:01.866Z,2.20
2023-07-12T10:39:02.052Z,1.90
2023-07-12T10:40:02.243Z,1.90
2023-07-12T10:41:02.402Z,1.90
2023-07-12T10:42:02.587Z,1.90
2023-07-12T10:43:02.830Z,2.00
2023-07-12T10:44:02.936Z,1.90
2023-07-12T10:45:03.130Z,1.70
2023-07-12T10:46:03.368Z,1.70
2023-07-12T10:47:03.558Z,1.80
2023-07-12T10:48:03.762Z,1.90
2023-07-12T10:49:03.886Z,1.80
2023-07-12T10:50:04.110Z,1.80
2023-07-12T10:51:04.264Z,1.90
2023-07-12T10:52:04.460Z,1.70
2023-07-12T10:53:04.718Z,1.80
2023-07-12T10:54:04.817Z,1.90
2023-07-12T10:55:05.180Z,1.60
2023-07-12T10:56:05.180Z,1.70
2023-07-12T10:57:05.354Z,1.90
2023-07-12T10:58:05.544Z,1.80
2023-07-12T10:59:05.724Z,1.70
2023-07-12T11:00:05.977Z,1.80
2023-07-12T11:01:06.197Z,1.70
2023-07-12T11:02:06.377Z,1.70
2023-07-12T11:03:06.603Z,1.80
2023-07-12T11:04:06.675Z,1.50
2023-07-12T11:05:06.837Z,1.80
2023-07-12T11:06:07.041Z,1.60
2023-07-12T11:07:07.205Z,1.60
2023-07-12T11:08:07.359Z,1.80
2023-07-12T11:09:07.555Z,1.80
2023-07-12T11:10:07.756Z,1.80
2023-07-12T11:11:08.189Z,2.00
2023-07-12T11:12:08.101Z,1.70
2023-07-12T11:13:08.282Z,1.80
2023-07-12T11:14:08.439Z,2.00
2023-07-12T11:15:08.662Z,1.70
2023-07-12T11:16:08.843Z,1.80
2023-07-12T11:17:09.180Z,1.80
2023-07-12T11:18:09.284Z,1.50
2023-07-12T11:19:09.418Z,1.60
2023-07-12T11:20:09.589Z,1.60
2023-07-12T11:21:09.930Z,1.70
2023-07-12T11:22:09.947Z,1.80
2023-07-12T11:23:10.084Z,1.60
2023-07-12T11:24:10.316Z,1.60
2023-07-12T11:25:10.448Z,1.80
2023-07-12T11:26:10.626Z,1.70
2023-07-12T11:27:10.837Z,1.70
2023-07-12T11:28:11.023Z,1.90
2023-07-12T11:29:11.243Z,1.70
2023-07-12T11:30:11.359Z,1.90
2023-07-12T11:31:11.908Z,1.90
2023-07-12T11:32:11.734Z,1.80
2023-07-12T11:33:11.971Z,1.60
2023-07-12T11:34:12.128Z,1.70
2023-07-12T11:35:12.291Z,1.60
2023-07-12T11:36:12.489Z,1.50
2023-07-12T11:37:12.674Z,1.70
2023-07-12T11:38:12.846Z,1.70
2023-07-12T11:39:13.025Z,1.80
2023-07-12T11:40:13.218Z,1.60
2023-07-12T11:41:13.433Z,1.60
2023-07-12T11:42:13.585Z,1.80
2023-07-12T11:43:13.765Z,1.60
2023-07-12T11:44:13.967Z,1.60
2023-07-12T11:45:15.126Z,1.70
2023-07-12T11:46:14.448Z,2.30
2023-07-12T11:47:14.525Z,1.70
2023-07-12T11:48:14.784Z,1.90
2023-07-12T11:49:14.873Z,1.80
2023-07-12T11:50:15.088Z,1.60
2023-07-12T11:51:15.277Z,1.60
2023-07-12T11:52:15.440Z,1.70
2023-07-12T11:53:15.632Z,1.70
2023-07-12T11:54:15.808Z,1.80
2023-07-12T11:55:16.020Z,1.50
2023-07-12T11:56:16.162Z,1.70
2023-07-12T11:57:16.341Z,1.70
2023-07-12T11:58:16.532Z,1.70
2023-07-12T11:59:16.764Z,1.60
2023-07-12T12:00:16.906Z,1.60
2023-07-12T12:01:17.044Z,1.50
2023-07-12T12:02:17.234Z,1.60
2023-07-12T12:03:17.560Z,1.60
2023-07-12T12:04:17.695Z,1.30
2023-07-12T12:05:17.923Z,1.60
2023-07-12T12:06:17.991Z,1.60
2023-07-12T12:07:18.173Z,1.60
2023-07-12T12:08:18.344Z,1.60
2023-07-12T12:09:18.582Z,1.60
2023-07-12T12:10:18.717Z,1.50
2023-07-12T12:11:18.884Z,1.50
2023-07-12T12:12:19.134Z,1.20
2023-07-12T12:13:19.376Z,1.40
2023-07-12T12:14:19.486Z,1.40
2023-07-12T12:15:19.629Z,1.40
2023-07-12T12:16:19.835Z,1.40
2023-07-12T12:17:20.051Z,1.60
2023-07-12T12:18:20.507Z,1.40
2023-07-12T12:19:20.790Z,1.30
2023-07-12T12:20:21.183Z,1.30
2023-07-12T12:21:21.312Z,1.40
2023-07-12T12:22:21.162Z,1.50
2023-07-12T12:23:21.129Z,1.40
2023-07-12T12:24:21.330Z,1.60
2023-07-12T12:25:21.534Z,1.50
2023-07-12T12:26:23.398Z,1.30
2023-07-12T12:27:21.864Z,1.30
2023-07-12T12:28:22.048Z,1.30
2023-07-12T12:29:22.286Z,1.40
2023-07-12T12:30:22.445Z,1.20
2023-07-12T12:31:22.710Z,1.30
2023-07-12T12:32:22.995Z,1.20
2023-07-12T12:33:22.981Z,1.30
2023-07-12T12:34:23.169Z,1.10
2023-07-12T12:35:23.464Z,1.40
2023-07-12T12:36:23.531Z,1.20
2023-07-12T12:37:23.751Z,1.20
2023-07-12T12:38:23.908Z,1.10
2023-07-12T12:39:24.098Z,1.10
2023-07-12T12:40:24.315Z,1.00
2023-07-12T12:41:24.460Z,1.10
2023-07-12T12:42:24.648Z,1.10
2023-07-12T12:43:24.845Z,1.20
2023-07-12T12:44:25.042Z,1.00
2023-07-12T12:45:25.218Z,1.10
2023-07-12T12:46:26.308Z,1.00
2023-07-12T12:47:25.706Z,0.90
2023-07-12T12:49:38.420Z,1.00
2023-07-12T12:53:33.655Z,1.20
2023-07-12T12:54:28.069Z,0.90
2023-07-12T12:59:45.420Z,0.90
2023-07-12T13:04:50.191Z,0.90
2023-07-12T13:04:50.459Z,0.80
2023-07-12T13:04:54.824Z,0.90
2023-07-12T13:05:33.178Z,0.90
2023-07-12T13:06:29.317Z,0.70
2023-07-12T13:07:44.934Z,1.00
2023-07-12T13:17:54.916Z,0.80
2023-07-12T13:19:10.671Z,0.90
2023-07-12T13:19:33.676Z,0.80
2023-07-12T13:20:31.850Z,0.90
2023-07-12T13:21:31.990Z,1.00
2023-07-12T13:22:32.023Z,1.00
2023-07-12T13:24:32.368Z,1.10
2023-07-12T13:25:32.547Z,1.00
2023-07-12T13:26:32.738Z,1.20
2023-07-12T13:27:32.960Z,0.80
2023-07-12T13:28:33.115Z,0.80
2023-07-12T13:29:33.288Z,1.00
2023-07-12T13:30:33.480Z,0.90
2023-07-12T13:31:33.712Z,0.90
2023-07-12T13:32:33.899Z,0.80
2023-07-12T13:33:34.085Z,1.00
2023-07-12T13:36:34.652Z,0.90
2023-07-12T13:37:42.349Z,0.90
2023-07-12T13:40:38.582Z,0.90
2023-07-12T13:45:14.604Z,0.80
2023-07-12T13:45:39.314Z,0.80
2023-07-12T13:46:36.571Z,0.90
2023-07-12T13:47:37.771Z,0.80
2023-07-12T13:48:36.894Z,0.80